createdAt,value
2023-11-22T00:02:21.544Z,-18314.19
2023-11-22T00:05:24.520Z,-18313.75
2023-11-22T00:08:27.205Z,-18314.31
2023-11-22T00:11:30.018Z,-18314.31
2023-11-22T00:14:32.523Z,-18314.19
2023-11-22T00:17:35.718Z,-18313.91
2023-11-22T00:20:38.535Z,-18313.91
2023-11-22T00:23:41.424Z,-18313.91
2023-11-22T00:26:43.821Z,-18313.91
2023-11-22T00:29:47.235Z,-18313.91
2023-11-22T00:32:50.201Z,-18315.41
2023-11-22T00:35:54.677Z,-18315.56
2023-11-22T00:38:57.187Z,-18315.97
2023-11-22T00:42:00.031Z,-18316.94
2023-11-22T00:45:03.226Z,-18316.53
2023-11-22T00:48:07.128Z,-18315.28
2023-11-22T00:51:11.419Z,-18313.75
2023-11-22T00:54:14.756Z,-18312.81
2023-11-22T00:57:18.050Z,-18313.91
2023-11-22T01:00:20.687Z,-18316.25
2023-11-22T01:03:23.184Z,-18317.91
2023-11-22T01:06:26.322Z,-18319.28
2023-11-22T01:09:29.906Z,-18321.63
2023-11-22T01:12:33.168Z,-18322.28
2023-11-22T01:15:36.109Z,-18323.41
2023-11-22T01:18:40.734Z,-18325.31
2023-11-22T01:21:43.753Z,-18323.81
2023-11-22T01:24:46.900Z,-18323.00
2023-11-22T01:27:49.285Z,-18321.34
2023-11-22T01:30:52.175Z,-18320.25
2023-11-22T01:33:55.170Z,-18320.66
2023-11-22T01:36:58.225Z,-18321.63
2023-11-22T01:40:00.800Z,-18322.16
2023-11-22T01:43:03.791Z,-18323.69
2023-11-22T01:46:06.217Z,-18323.81
2023-11-22T01:49:10.993Z,-18324.09
2023-11-22T01:52:14.359Z,-18324.78
2023-11-22T01:55:17.270Z,-18325.47
2023-11-22T01:58:19.609Z,-18326.16
2023-11-22T02:01:22.507Z,-18326.72
2023-11-22T02:04:25.241Z,-18326.44
2023-11-22T02:07:32.536Z,-18328.09
2023-11-22T02:10:37.643Z,-18324.22
2023-11-22T02:13:40.249Z,-18322.72
2023-11-22T02:16:43.258Z,-18321.47
2023-11-22T02:19:45.594Z,-18319.41
2023-11-22T02:22:49.239Z,-18317.19
2023-11-22T02:25:51.585Z,-18315.69
2023-11-22T02:28:54.319Z,-18311.41
2023-11-22T02:31:57.107Z,-18311.56
2023-11-22T02:35:00.275Z,-18311.00
2023-11-22T02:38:02.772Z,-18310.88
2023-11-22T02:41:05.871Z,-18310.88
2023-11-22T02:44:08.498Z,-18310.88
2023-11-22T02:47:11.667Z,-18310.03
2023-11-22T02:50:15.094Z,-18307.56
2023-11-22T02:53:18.821Z,-18308.81
2023-11-22T02:56:22.402Z,-18309.22
2023-11-22T02:59:25.158Z,-18310.03
2023-11-22T03:02:27.604Z,-18310.59
2023-11-22T03:05:30.286Z,-18310.88
2023-11-22T03:08:34.326Z,-18311.56
2023-11-22T03:11:37.996Z,-18310.88
2023-11-22T03:14:42.531Z,-18307.84
2023-11-22T03:17:45.487Z,-18306.59
2023-11-22T03:20:48.115Z,-18305.91
2023-11-22T03:23:51.220Z,-18307.44
2023-11-22T03:26:53.915Z,-18307.56
2023-11-22T03:29:56.872Z,-18305.37
2023-11-22T03:32:59.508Z,-18304.81
2023-11-22T03:36:03.369Z,-18305.09
2023-11-22T03:39:07.152Z,-18305.50
2023-11-22T03:42:10.033Z,-18303.03
2023-11-22T03:45:14.438Z,-18303.16
2023-11-22T03:48:17.191Z,-18305.37
2023-11-22T03:51:19.867Z,-18305.37
2023-11-22T03:54:22.724Z,-18307.56
2023-11-22T03:57:25.300Z,-18308.13
2023-11-22T04:00:28.404Z,-18308.81
2023-11-22T04:03:31.090Z,-18310.03
2023-11-22T04:06:34.649Z,-18309.50
2023-11-22T04:09:37.647Z,-18308.53
2023-11-22T04:12:40.315Z,-18311.28
2023-11-22T04:15:42.885Z,-18311.69
2023-11-22T04:18:45.831Z,-18311.84
2023-11-22T04:21:48.909Z,-18311.00
2023-11-22T04:24:51.433Z,-18313.06
2023-11-22T04:27:54.138Z,-18309.09
2023-11-22T04:30:56.919Z,-18309.78
2023-11-22T04:34:01.439Z,-18309.91
2023-11-22T04:37:04.367Z,-18309.78
2023-11-22T04:40:12.508Z,-18309.34
2023-11-22T04:43:15.304Z,-18310.88
2023-11-22T04:46:17.966Z,-18309.34
2023-11-22T04:49:20.472Z,-18307.56
2023-11-22T04:52:23.353Z,-18304.53
2023-11-22T04:55:26.217Z,-18305.37
2023-11-22T04:58:29.016Z,-18308.13
2023-11-22T05:01:34.808Z,-18306.75
2023-11-22T05:04:37.852Z,-18306.47
2023-11-22T05:07:40.718Z,-18306.47
2023-11-22T05:10:43.324Z,-18306.88
2023-11-22T05:13:45.650Z,-18306.75
2023-11-22T05:16:48.949Z,-18308.13
2023-11-22T05:19:52.050Z,-18304.81
2023-11-22T05:22:54.701Z,-18305.09
2023-11-22T05:25:57.420Z,-18303.56
2023-11-22T05:29:00.422Z,-18304.00
2023-11-22T05:32:03.946Z,-18302.59
2023-11-22T05:35:10.976Z,-18301.66
2023-11-22T05:38:13.608Z,-18300.41
2023-11-22T05:41:16.897Z,-18297.38
2023-11-22T05:44:19.561Z,-18296.81
2023-11-22T05:47:22.521Z,-18297.66
2023-11-22T05:50:25.198Z,-18298.62
2023-11-22T05:53:28.136Z,-18297.66
2023-11-22T05:56:30.568Z,-18298.19
2023-11-22T05:59:33.169Z,-18294.75
2023-11-22T06:02:37.714Z,-18295.59
2023-11-22T06:05:41.154Z,-18294.22
2023-11-22T06:08:43.878Z,-18296.56
2023-11-22T06:11:46.685Z,-18297.66
2023-11-22T06:14:49.099Z,-18300.97
2023-11-22T06:17:52.144Z,-18300.13
2023-11-22T06:20:54.779Z,-18300.13
2023-11-22T06:23:59.499Z,-18301.50
2023-11-22T06:27:02.317Z,-18300.53
2023-11-22T06:30:05.277Z,-18300.13
2023-11-22T06:33:08.321Z,-18302.88
2023-11-22T06:36:12.746Z,-18306.19
2023-11-22T06:39:15.384Z,-18308.94
2023-11-22T06:42:18.215Z,-18313.22
2023-11-22T06:45:20.625Z,-18317.47
2023-11-22T06:48:23.810Z,-18321.06
2023-11-22T06:51:26.553Z,-18322.28
2023-11-22T06:54:29.466Z,-18323.53
2023-11-22T06:57:32.185Z,-18323.25
2023-11-22T07:00:35.053Z,-18326.84
2023-11-22T07:03:39.092Z,-18331.25
2023-11-22T07:06:43.885Z,-18334.00
2023-11-22T07:09:47.357Z,-18337.84
2023-11-22T07:12:50.289Z,-18344.19
2023-11-22T07:15:52.995Z,-18346.25
2023-11-22T07:18:55.984Z,-18349.81
2023-11-22T07:21:59.093Z,-18353.81
2023-11-22T07:25:03.539Z,-18356.84
2023-11-22T07:28:06.266Z,-18358.62
2023-11-22T07:31:12.682Z,-18358.22
2023-11-22T07:34:15.320Z,-18360.97
2023-11-22T07:37:19.345Z,-18362.06
2023-11-22T07:40:23.878Z,-18365.22
2023-11-22T07:43:26.658Z,-18364.81
2023-11-22T07:46:29.071Z,-18365.50
2023-11-22T07:49:32.058Z,-18367.16
2023-11-22T07:52:34.608Z,-18367.56
2023-11-22T07:55:38.952Z,-18368.25
2023-11-22T07:58:41.856Z,-18369.63
2023-11-22T08:01:44.886Z,-18372.94
2023-11-22T08:04:49.252Z,-18374.84
2023-11-22T08:07:51.813Z,-18375.53
2023-11-22T08:10:55.027Z,-18377.47
2023-11-22T08:14:00.150Z,-18378.16
2023-11-22T08:17:03.275Z,-18381.59
2023-11-22T08:20:10.523Z,-18385.03
2023-11-22T08:23:16.131Z,-18388.72
2023-11-22T08:26:18.880Z,-18389.84
2023-11-22T08:29:21.730Z,-18392.03
2023-11-22T08:32:28.931Z,-18398.09
2023-11-22T08:35:32.379Z,-18404.13
2023-11-22T08:38:35.753Z,-18409.47
2023-11-22T08:41:39.266Z,-18409.47
2023-11-22T08:44:42.567Z,-18414.00
2023-11-22T08:47:46.521Z,-18416.75
2023-11-22T08:50:49.329Z,-18418.97
2023-11-22T08:53:52.534Z,-18425.97
2023-11-22T08:56:57.431Z,-18429.13
2023-11-22T09:00:07.298Z,-18433.22
2023-11-22T09:03:14.168Z,-18437.06
2023-11-22T09:06:17.396Z,-18440.63
2023-11-22T09:09:20.781Z,-18440.38
2023-11-22T09:12:23.750Z,-18438.59
2023-11-22T09:15:27.974Z,-18440.63
2023-11-22T09:18:31.052Z,-18440.38
2023-11-22T09:21:33.917Z,-18441.88
2023-11-22T09:24:38.108Z,-18444.91
2023-11-22T09:27:41.622Z,-18446.69
2023-11-22T09:30:44.683Z,-18451.34
2023-11-22T09:33:48.025Z,-18447.63
2023-11-22T09:36:50.902Z,-18448.47
2023-11-22T09:39:53.604Z,-18451.63
2023-11-22T09:42:56.986Z,-18455.75
2023-11-22T09:46:01.022Z,-18461.50
2023-11-22T09:49:09.077Z,-18462.72
2023-11-22T09:52:15.523Z,-18463.16
2023-11-22T09:55:21.016Z,-18466.56
2023-11-22T09:58:25.450Z,-18470.13
2023-11-22T10:01:29.384Z,-18472.75
2023-11-22T10:04:32.994Z,-18475.63
2023-11-22T10:07:37.309Z,-18478.09
2023-11-22T10:10:41.518Z,-18480.16
2023-11-22T10:13:46.804Z,-18482.06
2023-11-22T10:16:59.652Z,-18480.69
2023-11-22T10:20:02.984Z,-18482.75
2023-11-22T10:23:09.899Z,-18482.63
2023-11-22T10:26:13.336Z,-18481.50
2023-11-22T10:29:16.032Z,-18486.03
2023-11-22T10:32:18.769Z,-18489.06
2023-11-22T10:35:23.612Z,-18491.78
2023-11-22T10:38:27.083Z,-18488.91
2023-11-22T10:41:30.515Z,-18491.38
2023-11-22T10:44:34.121Z,-18488.78
2023-11-22T10:47:39.346Z,-18487.81
2023-11-22T10:50:42.120Z,-18482.75
2023-11-22T10:53:49.896Z,-18485.50
2023-11-22T10:56:56.064Z,-18483.03
2023-11-22T11:00:02.286Z,-18481.38
2023-11-22T11:03:10.897Z,-18479.72
2023-11-22T11:06:14.713Z,-18477.69
2023-11-22T11:09:22.456Z,-18474.09
2023-11-22T11:12:25.750Z,-18473.69
2023-11-22T11:15:29.812Z,-18471.91
2023-11-22T11:18:34.256Z,-18475.91
2023-11-22T11:21:37.114Z,-18472.75
2023-11-22T11:24:41.104Z,-18470.00
2023-11-22T11:27:43.851Z,-18459.72
2023-11-22T11:30:47.934Z,-18458.22
2023-11-22T11:33:51.296Z,-18460.00
2023-11-22T11:36:57.260Z,-18460.94
2023-11-22T11:39:59.923Z,-18457.09
2023-11-22T11:43:03.249Z,-18455.75
2023-11-22T11:46:09.393Z,-18456.84
2023-11-22T11:49:15.814Z,-18459.03
2023-11-22T11:52:18.989Z,-18455.88
2023-11-22T11:55:21.962Z,-18457.66
2023-11-22T11:58:24.783Z,-18459.03
2023-11-22T12:01:28.918Z,-18453.69
2023-11-22T12:04:33.053Z,-18455.88
2023-11-22T12:07:36.457Z,-18458.75
2023-11-22T12:10:39.199Z,-18453.53
2023-11-22T12:13:47.594Z,-18452.03
2023-11-22T12:16:55.636Z,-18453.00
2023-11-22T12:20:12.512Z,-18451.06
2023-11-22T12:23:15.507Z,-18455.03
2023-11-22T12:26:20.555Z,-18455.31
2023-11-22T12:29:24.479Z,-18455.19
2023-11-22T12:32:26.934Z,-18458.47
2023-11-22T12:35:30.630Z,-18459.72
2023-11-22T12:38:35.517Z,-18456.28
2023-11-22T12:41:42.589Z,-18454.38
2023-11-22T12:44:50.604Z,-18451.88
2023-11-22T12:47:54.163Z,-18448.88
2023-11-22T12:50:57.695Z,-18447.22
2023-11-22T12:54:00.709Z,-18450.53
2023-11-22T12:57:04.132Z,-18455.19
2023-11-22T13:00:07.990Z,-18458.06
2023-11-22T13:03:11.784Z,-18520.16
2023-11-22T13:06:15.132Z,-18536.84
2023-11-22T13:09:18.102Z,-18502.34
2023-11-22T13:12:21.258Z,-18484.81
2023-11-22T13:15:31.264Z,-18469.19
2023-11-22T13:18:34.345Z,-18454.38
2023-11-22T13:21:36.808Z,-18449.69
2023-11-22T13:24:39.637Z,-18447.78
2023-11-22T13:27:41.906Z,-18445.84
2023-11-22T13:30:44.924Z,-18446.53
2023-11-22T13:33:48.260Z,-18446.41
2023-11-22T13:36:51.078Z,-18446.28
2023-11-22T13:39:53.801Z,-18446.13
2023-11-22T13:42:56.882Z,-18443.94
2023-11-22T13:45:59.453Z,-18442.97
2023-11-22T13:49:02.342Z,-18441.88
2023-11-22T13:52:05.027Z,-18439.00
2023-11-22T13:55:12.144Z,-18437.47
2023-11-22T13:58:15.203Z,-18436.81
2023-11-22T14:01:23.056Z,-18434.31
2023-11-22T14:04:26.214Z,-18433.78
2023-11-22T14:07:28.650Z,-18432.28
2023-11-22T14:10:31.529Z,-18432.00
2023-11-22T14:13:33.989Z,-18431.16
2023-11-22T14:16:39.848Z,-18429.81
2023-11-22T14:19:45.663Z,-18429.13
2023-11-22T14:22:54.290Z,-18426.66
2023-11-22T14:25:56.721Z,-18424.03
2023-11-22T14:28:59.485Z,-18420.59
2023-11-22T14:32:02.469Z,-18418.69
2023-11-22T14:35:05.805Z,-18417.03
2023-11-22T14:38:08.451Z,-18414.97
2023-11-22T14:41:13.725Z,-18412.63
2023-11-22T14:44:16.313Z,-18412.09
2023-11-22T14:47:26.109Z,-18409.47
2023-11-22T14:50:29.529Z,-18408.25
2023-11-22T14:53:33.461Z,-18408.66
2023-11-22T14:56:36.122Z,-18405.22
2023-11-22T14:59:39.641Z,-18403.84
2023-11-22T15:02:48.854Z,-18401.25
2023-11-22T15:05:52.052Z,-18398.91
2023-11-22T15:08:54.658Z,-18397.13
2023-11-22T15:11:58.108Z,-18395.47
2023-11-22T15:15:00.624Z,-18396.16
2023-11-22T15:18:03.481Z,-18395.06
2023-11-22T15:21:06.540Z,-18394.66
2023-11-22T15:24:09.944Z,-18392.72
2023-11-22T15:27:13.613Z,-18389.56
2023-11-22T15:30:18.229Z,-18388.72
2023-11-22T15:33:20.890Z,-18389.56
2023-11-22T15:36:23.873Z,-18391.34
2023-11-22T15:39:26.424Z,-18390.66
2023-11-22T15:42:30.355Z,-18387.63
2023-11-22T15:45:33.243Z,-18387.91
2023-11-22T15:48:37.049Z,-18384.75
2023-11-22T15:51:39.738Z,-18383.38
2023-11-22T15:54:43.670Z,-18383.22
2023-11-22T15:57:46.521Z,-18381.72
2023-11-22T16:00:49.611Z,-18382.97
2023-11-22T16:03:52.299Z,-18383.78
2023-11-22T16:06:54.689Z,-18382.00
2023-11-22T16:09:57.273Z,-18380.47
2023-11-22T16:12:59.675Z,-18382.81
2023-11-22T16:16:02.844Z,-18378.00
2023-11-22T16:19:06.262Z,-18375.25
2023-11-22T16:22:09.919Z,-18371.56
2023-11-22T16:25:15.790Z,-18369.22
2023-11-22T16:28:18.980Z,-18368.13
2023-11-22T16:31:21.818Z,-18366.31
2023-11-22T16:34:25.014Z,-18367.00
2023-11-22T16:37:27.766Z,-18361.94
2023-11-22T16:40:31.233Z,-18360.41
2023-11-22T16:43:33.909Z,-18358.22
2023-11-22T16:46:37.533Z,-18356.16
2023-11-22T16:49:47.325Z,-18356.16
2023-11-22T16:52:51.466Z,-18357.94
2023-11-22T16:55:54.047Z,-18356.84
2023-11-22T16:58:57.447Z,-18357.53
2023-11-22T17:02:03.099Z,-18358.22
2023-11-22T17:05:06.587Z,-18357.13
2023-11-22T17:08:09.143Z,-18358.22
2023-11-22T17:11:12.648Z,-18354.78
2023-11-22T17:14:15.019Z,-18355.75
2023-11-22T17:17:17.968Z,-18354.38
2023-11-22T17:20:20.661Z,-18350.78
2023-11-22T17:23:23.411Z,-18350.94
2023-11-22T17:26:26.252Z,-18351.06
2023-11-22T17:29:32.063Z,-18352.16
2023-11-22T17:32:35.812Z,-18352.84
2023-11-22T17:35:39.664Z,-18348.72
2023-11-22T17:38:42.611Z,-18348.44
2023-11-22T17:41:45.631Z,-18343.91
2023-11-22T17:44:50.540Z,-18341.69
2023-11-22T17:47:53.870Z,-18341.44
2023-11-22T17:50:56.324Z,-18340.06
2023-11-22T17:53:59.364Z,-18341.97
2023-11-22T17:57:02.175Z,-18337.56
2023-11-22T18:00:06.582Z,-18339.09
2023-11-22T18:03:15.482Z,-18337.31
2023-11-22T18:06:20.387Z,-18337.72
2023-11-22T18:09:23.489Z,-18336.88
2023-11-22T18:12:26.183Z,-18336.75
2023-11-22T18:15:28.510Z,-18334.00
2023-11-22T18:18:31.403Z,-18330.56
2023-11-22T18:21:34.823Z,-18331.66
2023-11-22T18:24:38.757Z,-18330.00
2023-11-22T18:27:43.673Z,-18325.19
2023-11-22T18:30:46.546Z,-18324.91
2023-11-22T18:33:48.956Z,-18322.28
2023-11-22T18:36:52.000Z,-18322.16
2023-11-22T18:39:58.380Z,-18318.44
2023-11-22T18:43:02.159Z,-18316.53
2023-11-22T18:46:04.997Z,-18317.06
2023-11-22T18:49:09.008Z,-18316.09
2023-11-22T18:52:11.445Z,-18315.16
2023-11-22T18:55:14.524Z,-18314.44
2023-11-22T18:58:17.334Z,-18314.31
2023-11-22T19:01:22.094Z,-18315.81
2023-11-22T19:04:25.965Z,-18314.19
2023-11-22T19:07:28.811Z,-18311.00
2023-11-22T19:10:31.498Z,-18309.63
2023-11-22T19:13:36.695Z,-18309.63
2023-11-22T19:16:39.138Z,-18308.13
2023-11-22T19:19:42.764Z,-18308.66
2023-11-22T19:22:45.353Z,-18305.50
2023-11-22T19:25:48.480Z,-18302.88
2023-11-22T19:28:52.475Z,-18303.16
2023-11-22T19:31:57.033Z,-18300.97
2023-11-22T19:34:59.581Z,-18292.41
2023-11-22T19:38:03.345Z,-18289.94
2023-11-22T19:41:06.011Z,-18285.81
2023-11-22T19:44:08.830Z,-18284.69
2023-11-22T19:47:11.425Z,-18283.31
2023-11-22T19:50:14.178Z,-18282.22
2023-11-22T19:53:17.978Z,-18278.09
2023-11-22T19:56:20.609Z,-18274.78
2023-11-22T19:59:23.540Z,-18273.81
2023-11-22T20:02:26.481Z,-18274.22
2023-11-22T20:05:29.120Z,-18271.75
2023-11-22T20:08:32.126Z,-18269.69
2023-11-22T20:11:35.374Z,-18267.34
2023-11-22T20:14:38.345Z,-18266.38
2023-11-22T20:17:41.536Z,-18264.03
2023-11-22T20:20:44.102Z,-18262.50
2023-11-22T20:23:46.785Z,-18260.44
2023-11-22T20:26:49.187Z,-18257.41
2023-11-22T20:29:52.636Z,-18256.88
2023-11-22T20:32:56.167Z,-18256.31
2023-11-22T20:35:59.421Z,-18255.63
2023-11-22T20:39:02.374Z,-18254.38
2023-11-22T20:42:05.692Z,-18256.16
2023-11-22T20:45:09.655Z,-18254.66
2023-11-22T20:48:13.747Z,-18254.09
2023-11-22T20:51:17.660Z,-18252.59
2023-11-22T20:54:22.494Z,-18253.13
2023-11-22T20:57:25.387Z,-18253.69
2023-11-22T21:00:31.724Z,-18251.22
2023-11-22T21:03:34.980Z,-18252.84
2023-11-22T21:06:38.697Z,-18252.31
2023-11-22T21:09:41.951Z,-18250.25
2023-11-22T21:12:45.205Z,-18249.13
2023-11-22T21:15:48.557Z,-18246.94
2023-11-22T21:18:52.237Z,-18246.94
2023-11-22T21:21:54.729Z,-18245.28
2023-11-22T21:24:57.352Z,-18243.91
2023-11-22T21:27:59.729Z,-18243.47
2023-11-22T21:31:03.023Z,-18245.00
2023-11-22T21:34:07.447Z,-18241.69
2023-11-22T21:37:10.251Z,-18239.91
2023-11-22T21:40:13.971Z,-18241.81
2023-11-22T21:43:17.148Z,-18238.78
2023-11-22T21:46:19.484Z,-18241.69
2023-11-22T21:49:22.383Z,-18239.63
2023-11-22T21:52:25.063Z,-18239.22
2023-11-22T21:55:27.916Z,-18238.09
2023-11-22T21:58:32.229Z,-18237.13
2023-11-22T22:01:34.948Z,-18236.31
2023-11-22T22:04:37.863Z,-18235.75
2023-11-22T22:07:40.437Z,-18237.69
2023-11-22T22:10:43.178Z,-18236.88
2023-11-22T22:13:45.715Z,-18234.66
2023-11-22T22:16:48.650Z,-18236.59
2023-11-22T22:19:51.102Z,-18235.63
2023-11-22T22:22:53.900Z,-18235.34
2023-11-22T22:25:56.549Z,-18236.72
2023-11-22T22:28:59.465Z,-18234.66
2023-11-22T22:32:01.798Z,-18233.97
2023-11-22T22:35:04.665Z,-18233.56
2023-11-22T22:38:07.379Z,-18232.84
2023-11-22T22:41:10.043Z,-18231.91
2023-11-22T22:44:12.655Z,-18232.72
2023-11-22T22:47:15.740Z,-18232.72
2023-11-22T22:50:18.741Z,-18232.72
2023-11-22T22:53:22.119Z,-18233.41
2023-11-22T22:56:24.504Z,-18231.47
2023-11-22T22:59:27.423Z,-18231.91
2023-11-22T23:02:31.625Z,-18231.06
2023-11-22T23:05:35.210Z,-18230.53
2023-11-22T23:08:38.148Z,-18230.09
2023-11-22T23:11:40.809Z,-18227.75
2023-11-22T23:14:45.005Z,-18230.66
2023-11-22T23:17:48.048Z,-18228.44
2023-11-22T23:20:50.858Z,-18229.12
2023-11-22T23:23:53.779Z,-18228.44
2023-11-22T23:26:56.161Z,-18227.06
2023-11-22T23:29:59.590Z,-18225.97
2023-11-22T23:33:01.979Z,-18228.44
2023-11-22T23:36:08.043Z,-18229.56
2023-11-22T23:39:13.885Z,-18225.41
2023-11-22T23:42:17.432Z,-18224.03
2023-11-22T23:45:21.007Z,-18222.94
2023-11-22T23:48:24.363Z,-18222.50
2023-11-22T23:51:26.930Z,-18221.81
2023-11-22T23:54:29.778Z,-18223.47
2023-11-22T23:57:32.089Z,-18221.81
